Time;durP1;ratioP1;P1;durP2;ratioP2;P2;SDS_P1;SDS_P2;PMS_P1;PMS_P2;Temp;Humidity;BMP_temperature;BMP_pressure;BME280_temperature;BME280_humidity;BME280_pressure;Samples;Min_cycle;Max_cycle;Signal;HPM_P1;HPM_P2
2022/08/02 05:22:13;;;;;;;;;;;;;;;11.61;100.00;99873.16;6224771;22;20718;31
2022/08/02 05:24:38;;;;;;;;;;;;;;;11.68;100.00;99868.47;6149611;23;19956;-91
2022/08/02 05:27:03;;;;;;;;;;;;;;;11.85;100.00;99872.13;6149908;23;19964;-92
2022/08/02 05:29:31;;;;;;;;;;;;;;;11.82;100.00;99871.34;6125790;23;19913;-92
2022/08/02 05:35:32;;;;;;;;;;;;;;;11.72;100.00;99883.28;6093976;23;19914;-91
2022/08/02 05:38:30;;;;;;;;;;;;;;;;;;;;;
2022/08/02 05:47:17;;;;;;;;;;;;;;;11.77;100.00;99873.31;6276662;22;19962;-91
2022/08/02 05:49:56;;;;;;;;;;;;;;;11.70;100.00;99877.19;6249309;22;19939;-94
2022/08/02 05:52:50;;;;;;;;;;;;;;;11.82;100.00;99881.94;6249015;22;19911;-91
2022/08/02 05:55:27;;;;;;;;;;;;;;;11.93;100.00;99877.94;6277658;22;20299;-90
2022/08/02 05:58:13;;;;;;;;;;;;;;;11.88;100.00;99880.78;6247518;22;19912;-92
2022/08/02 06:01:23;;;;;;;;;;;;;;;11.74;100.00;99884.09;6277124;22;19919;-94
2022/08/02 06:10:05;;;;;;;;;;;;;;;;;;;;;
2022/08/02 06:12:37;;;;;;;;;;;;;;;11.97;100.00;99879.53;6277421;22;19986;-91
2022/08/02 06:15:29;;;;;;;;;;;;;;;11.78;100.00;99883.00;6249030;22;19998;-93
2022/08/02 06:21:22;;;;;;;;;;;;;;;;;;;;;
2022/08/02 07:53:13;;;;;;;;;;;;;;;11.96;100.00;99870.69;6268747;22;19984;-86
2022/08/02 07:55:39;;;;;;;;;;;;;;;15.19;100.00;99853.44;6276454;22;20001;-89
2022/08/02 07:58:04;;;;;;;;;;;;;;;15.52;100.00;99860.31;6249742;22;19915;-83
2022/08/02 08:00:30;;;;;;;;;;;;;;;13.13;100.00;99866.72;6276083;22;20282;-83
2022/08/02 08:02:55;;;;;;;;;;;;;;;12.58;100.00;99858.91;6247699;22;19990;-84
2022/08/02 08:05:20;;;;;;;;;;;;;;;12.72;100.00;99861.72;6275389;22;19911;-82
2022/08/02 08:07:45;;;;;;;;;;;;;;;12.59;100.00;99864.16;6246333;22;19944;-85
2022/08/02 08:10:11;;;;;;;;;;;;;;;12.41;100.00;99862.38;6275400;22;19911;-84
2022/08/02 08:12:36;;;;;;;;;;;;;;;12.63;100.00;99867.50;6247981;22;19992;-82
2022/08/02 08:15:02;;;;;;;;;;;;;;;12.56;100.00;99866.06;6248348;22;19907;-86
2022/08/02 08:17:27;;;;;;;;;;;;;;;12.37;100.00;99866.16;6276763;22;19961;-85
2022/08/02 08:19:55;;;;;;;;;;;;;;;17.77;100.00;99848.03;6249897;22;19915;-86
2022/08/02 08:22:20;;;;;;;;;;;;;;;18.75;100.00;99849.81;6248035;22;19942;-86
2022/08/02 08:24:46;;;;;;;;;;;;;;;14.60;100.00;99856.03;6275434;22;19916;-82
2022/08/02 08:27:14;;;;;;;;;;;;;;;13.35;100.00;99854.97;6248416;22;19911;-83
2022/08/02 08:29:40;;;;;;;;;;;;;;;13.25;100.00;99859.88;6275658;22;19923;-85
2022/08/02 08:32:08;;;;;;;;;;;;;;;12.96;100.00;99861.41;6247537;22;19915;-81
2022/08/02 08:34:34;;;;;;;;;;;;;;;12.80;100.00;99864.84;6274257;22;19915;-81
2022/08/02 08:36:59;;;;;;;;;;;;;;;12.76;100.00;99867.75;6245864;22;19915;-82
2022/08/02 08:39:24;;;;;;;;;;;;;;;12.82;100.00;99865.63;6265261;22;20024;-82
2022/08/02 08:41:50;;;;;;;;;;;;;;;12.65;100.00;99857.63;6248796;22;19912;-81
2022/08/02 08:44:15;;;;;;;;;;;;;;;12.51;100.00;99853.88;6247541;22;19962;-82
2022/08/02 08:46:41;;;;;;;;;;;;;;;12.62;100.00;99858.69;6274642;22;19911;-82
2022/08/02 08:49:11;;;;;;;;;;;;;;;12.60;100.00;99857.03;6247240;22;19922;-83
2022/08/02 08:51:37;;;;;;;;;;;;;;;12.51;100.00;99864.53;6272955;22;19965;-83
2022/08/02 08:54:04;;;;;;;;;;;;;;;12.58;100.00;99859.75;6246624;22;19938;-81
2022/08/02 08:56:31;;;;;;;;;;;;;;;12.66;100.00;99859.38;6248761;22;19911;-82
2022/08/02 08:58:57;;;;;;;;;;;;;;;12.65;100.00;99853.22;6248273;22;19994;-82
2022/08/02 09:01:22;;;;;;;;;;;;;;;12.55;100.00;99854.59;6247432;22;19950;-84
2022/08/02 09:03:48;;;;;;;;;;;;;;;12.71;100.00;99850.22;6247877;22;20262;-81
2022/08/02 09:06:13;;;;;;;;;;;;;;;12.57;100.00;99857.16;6246665;22;19959;-83
2022/08/02 09:08:38;;;;;;;;;;;;;;;12.47;100.00;99847.00;6275745;22;20350;-83
2022/08/02 09:11:11;;;;;;;;;;;;;;;12.72;100.00;99849.28;6275601;22;19911;-83
2022/08/02 09:13:36;;;;;;;;;;;;;;;12.63;100.00;99844.44;6275827;22;19957;-84
2022/08/02 09:16:03;;;;;;;;;;;;;;;12.46;100.00;99845.28;6248535;22;19919;-83
2022/08/02 09:18:30;;;;;;;;;;;;;;;12.58;100.00;99848.28;6248508;22;19915;-82
2022/08/02 09:21:00;;;;;;;;;;;;;;;12.60;100.00;99846.38;6247482;22;19912;-83
2022/08/02 09:23:25;;;;;;;;;;;;;;;12.50;100.00;99846.84;6248390;22;19918;-83
2022/08/02 09:25:57;;;;;;;;;;;;;;;12.40;100.00;99850.91;6248537;22;19912;-82
2022/08/02 09:28:27;;;;;;;;;;;;;;;12.35;100.00;99850.28;6248172;22;19938;-83
2022/08/02 09:30:55;;;;;;;;;;;;;;;12.46;100.00;99842.63;6248012;22;19918;-85
2022/08/02 09:33:26;;;;;;;;;;;;;;;12.38;100.00;99842.16;6275571;22;20619;-82
2022/08/02 09:36:11;;;;;;;;;;;;;;;12.29;100.00;99840.81;6246758;22;19912;-81
2022/08/02 09:38:37;;;;;;;;;;;;;;;12.39;100.00;99843.00;6275673;22;19911;-82
2022/08/02 09:41:03;;;;;;;;;;;;;;;12.40;100.00;99842.94;6248439;22;20331;-84
2022/08/02 09:43:38;;;;;;;;;;;;;;;12.36;100.00;99844.00;6275662;22;20341;-82
2022/08/02 09:46:15;;;;;;;;;;;;;;;12.23;100.00;99842.91;6248637;22;19918;-82
2022/08/02 09:48:46;;;;;;;;;;;;;;;12.34;100.00;99843.22;6274093;22;19937;-81
2022/08/02 09:51:12;;;;;;;;;;;;;;;12.43;100.00;99836.59;6246423;22;19962;-82
2022/08/02 09:53:39;;;;;;;;;;;;;;;12.33;100.00;99845.03;6236664;23;20100;-81
2022/08/02 09:56:05;;;;;;;;;;;;;;;12.25;100.00;99849.00;6228935;23;20350;-81
2022/08/02 09:58:30;;;;;;;;;;;;;;;12.37;100.00;99836.91;6237896;23;19966;-83
2022/08/02 10:00:57;;;;;;;;;;;;;;;12.44;100.00;99838.31;6237668;23;20240;-82
2022/08/02 10:03:23;;;;;;;;;;;;;;;12.38;100.00;99842.16;6238572;23;20308;-82
2022/08/02 10:05:57;;;;;;;;;;;;;;;12.37;100.00;99845.75;6212223;23;20014;-80
2022/08/02 10:08:22;;;;;;;;;;;;;;;12.47;100.00;99840.81;6238002;23;19947;-81
2022/08/02 10:10:47;;;;;;;;;;;;;;;12.40;100.00;99828.75;6237894;23;19943;-81
2022/08/02 10:13:14;;;;;;;;;;;;;;;12.31;100.00;99836.25;6214328;23;19945;-81
2022/08/02 10:15:39;;;;;;;;;;;;;;;12.24;100.00;99834.84;6214423;23;19916;-82
2022/08/02 10:18:05;;;;;;;;;;;;;;;12.46;100.00;99834.66;6214526;23;19918;-81
2022/08/02 10:20:36;;;;;;;;;;;;;;;12.34;100.00;99827.28;6238055;23;19994;-82
2022/08/02 10:23:02;;;;;;;;;;;;;;;12.18;100.00;99825.38;6211250;23;19991;-82
2022/08/02 10:25:28;;;;;;;;;;;;;;;12.24;100.00;99815.38;6212227;23;19987;-82
2022/08/02 10:27:54;;;;;;;;;;;;;;;12.33;100.00;99818.47;6211975;23;19919;-82
2022/08/02 10:30:21;;;;;;;;;;;;;;;12.31;100.00;99815.00;6214041;23;19919;-82
2022/08/02 10:32:47;;;;;;;;;;;;;;;12.13;100.00;99811.47;6214704;23;19964;-82
2022/08/02 10:35:23;;;;;;;;;;;;;;;14.46;100.00;99800.84;6215848;23;19966;-94
2022/08/02 10:37:51;;;;;;;;;;;;;;;13.34;100.00;99806.22;6212606;23;19919;-85
2022/08/02 10:40:23;;;;;;;;;;;;;;;12.80;100.00;99803.69;6214705;23;19912;-85
2022/08/02 10:42:52;;;;;;;;;;;;;;;12.54;100.00;99791.75;6213218;23;19947;-84
2022/08/02 10:45:20;;;;;;;;;;;;;;;12.57;100.00;99793.38;6214637;23;19915;-84
2022/08/02 10:48:04;;;;;;;;;;;;;;;12.56;100.00;99796.97;6214579;23;19922;-83
2022/08/02 10:50:45;;;;;;;;;;;;;;;12.49;100.00;99796.44;6215978;23;20334;-84
2022/08/02 10:53:33;;;;;;;;;;;;;;;12.50;100.00;99796.34;6201397;23;20002;-84
2022/08/02 10:56:04;;;;;;;;;;;;;;;12.39;100.00;99790.72;6189894;23;20336;-83
2022/08/02 10:58:32;;;;;;;;;;;;;;;12.57;100.00;99780.94;6189442;23;20050;-82
2022/08/02 11:01:18;;;;;;;;;;;;;;;12.58;100.00;99785.34;6189240;23;20355;-83
2022/08/02 11:03:44;;;;;;;;;;;;;;;12.52;100.00;99785.63;6166991;23;19987;-83
2022/08/02 11:06:11;;;;;;;;;;;;;;;12.43;100.00;99775.47;6187140;23;19927;-83
2022/08/02 11:08:38;;;;;;;;;;;;;;;12.59;100.00;99776.44;6189117;23;20323;-82
2022/08/02 11:11:07;;;;;;;;;;;;;;;12.46;100.00;99784.19;6214402;23;20018;-83
2022/08/02 11:13:51;;;;;;;;;;;;;;;12.43;100.00;99781.66;6189193;23;20328;-84
2022/08/02 11:16:16;;;;;;;;;;;;;;;12.69;100.00;99776.81;6215677;23;19912;-84
2022/08/02 11:18:50;;;;;;;;;;;;;;;12.58;100.00;99777.34;6189255;23;19966;-83
2022/08/02 11:21:25;;;;;;;;;;;;;;;12.43;100.00;99779.00;6187695;23;19912;-84
2022/08/02 11:23:51;;;;;;;;;;;;;;;12.43;100.00;99773.69;6189148;23;20240;-84
2022/08/02 11:26:31;;;;;;;;;;;;;;;12.61;100.00;99774.53;6188665;23;20299;-84
2022/08/02 11:28:58;;;;;;;;;;;;;;;12.59;100.00;99771.13;6189031;23;19919;-83
2022/08/02 11:31:24;;;;;;;;;;;;;;;12.40;100.00;99765.88;6189348;23;19912;-87
2022/08/02 11:33:50;;;;;;;;;;;;;;;12.59;100.00;99759.59;6189297;23;19934;-85
2022/08/02 11:36:15;;;;;;;;;;;;;;;12.61;100.00;99765.72;6187978;23;19966;-83
2022/08/02 11:38:41;;;;;;;;;;;;;;;12.54;100.00;99767.84;6189018;23;19908;-83
2022/08/02 11:41:06;;;;;;;;;;;;;;;12.67;100.00;99763.59;6188917;23;19912;-84
2022/08/02 11:43:31;;;;;;;;;;;;;;;12.69;100.00;99760.88;6189025;23;19927;-86
2022/08/02 11:46:00;;;;;;;;;;;;;;;12.56;100.00;99759.75;6215656;23;19915;-85
2022/08/02 11:48:33;;;;;;;;;;;;;;;12.64;100.00;99762.91;6189261;23;19911;-84
2022/08/02 11:51:05;;;;;;;;;;;;;;;12.70;100.00;99767.88;6187649;23;20258;-85
2022/08/02 11:53:33;;;;;;;;;;;;;;;12.52;100.00;99759.06;6210350;23;19920;-85
2022/08/02 11:55:59;;;;;;;;;;;;;;;12.43;100.00;99765.72;6219261;23;19915;-85
2022/08/02 11:58:24;;;;;;;;;;;;;;;12.63;100.00;99755.84;6218879;23;19919;-84
2022/08/02 12:00:49;;;;;;;;;;;;;;;12.56;100.00;99767.72;6218994;23;20251;-84
2022/08/02 12:03:14;;;;;;;;;;;;;;;12.52;100.00;99756.41;6219302;23;20323;-85
2022/08/02 12:05:40;;;;;;;;;;;;;;;12.72;100.00;99753.56;6244897;23;19926;-84
2022/08/02 12:08:06;;;;;;;;;;;;;;;12.59;100.00;99754.28;6217611;23;20315;-85
2022/08/02 12:10:31;;;;;;;;;;;;;;;12.54;100.00;99744.78;6244993;23;19962;-85
2022/08/02 12:12:58;;;;;;;;;;;;;;;12.64;100.00;99744.31;6218338;23;19912;-84
2022/08/02 12:15:29;;;;;;;;;;;;;;;12.71;100.00;99748.34;6245884;23;19908;-85
2022/08/02 12:20:39;;;;;;;;;;;;;;;12.58;100.00;99734.84;6245025;23;19998;-84
2022/08/02 12:23:05;;;;;;;;;;;;;;;12.70;100.00;99738.63;6243266;23;19970;-85
2022/08/02 12:25:30;;;;;;;;;;;;;;;12.56;100.00;99725.22;6218644;23;19914;-85
2022/08/02 12:28:28;;;;;;;;;;;;;;;12.55;100.00;99727.00;6218104;23;19998;-85
2022/08/02 12:30:56;;;;;;;;;;;;;;;12.76;100.00;99730.34;6169104;23;19916;-83
2022/08/02 12:33:22;;;;;;;;;;;;;;;12.74;100.00;99726.91;6218463;23;19933;-84
2022/08/02 12:35:48;;;;;;;;;;;;;;;12.55;100.00;99735.00;6243498;23;20319;-85
2022/08/02 12:38:13;;;;;;;;;;;;;;;12.79;100.00;99724.00;6218111;23;20002;-85
2022/08/02 12:40:38;;;;;;;;;;;;;;;12.65;100.00;99728.28;6218319;23;20406;-83
2022/08/02 12:43:05;;;;;;;;;;;;;;;12.60;100.00;99724.13;6217829;23;20014;-84
2022/08/02 12:45:51;;;;;;;;;;;;;;;12.82;100.00;99723.84;6217661;23;19915;-84
2022/08/02 12:48:37;;;;;;;;;;;;;;;12.77;100.00;99720.59;6245147;23;19919;-84
2022/08/02 12:51:21;;;;;;;;;;;;;;;12.61;100.00;99721.38;6215738;23;19918;-84
2022/08/02 12:53:47;;;;;;;;;;;;;;;12.58;100.00;99720.69;6191528;23;19939;-85
2022/08/02 12:56:12;;;;;;;;;;;;;;;12.69;100.00;99702.38;6188201;23;20320;-84
2022/08/02 12:58:50;;;;;;;;;;;;;;;12.62;100.00;99704.50;6187289;23;19927;-83
2022/08/02 13:01:20;;;;;;;;;;;;;;;12.53;100.00;99708.50;6188310;23;19916;-85
2022/08/02 13:03:45;;;;;;;;;;;;;;;12.59;100.00;99706.44;6186997;23;19987;-83
2022/08/02 13:06:10;;;;;;;;;;;;;;;12.67;100.00;99707.78;6212731;23;20312;-85
2022/08/02 13:08:35;;;;;;;;;;;;;;;12.56;100.00;99695.97;6214182;23;19916;-83
2022/08/02 13:11:01;;;;;;;;;;;;;;;12.51;100.00;99689.13;6214063;23;19912;-84
2022/08/02 13:13:26;;;;;;;;;;;;;;;12.75;100.00;99688.75;6212425;23;20329;-84
2022/08/02 13:15:51;;;;;;;;;;;;;;;12.56;100.00;99683.56;6213946;23;19935;-85
2022/08/02 13:18:17;;;;;;;;;;;;;;;12.50;100.00;99690.03;6212059;23;19922;-84
2022/08/02 13:20:42;;;;;;;;;;;;;;;12.65;100.00;99687.53;6213783;23;19919;-85
2022/08/02 13:23:07;;;;;;;;;;;;;;;12.69;100.00;99686.44;6187073;23;20322;-84
2022/08/02 13:25:33;;;;;;;;;;;;;;;12.59;100.00;99679.88;6186919;23;19916;-84
2022/08/02 13:27:58;;;;;;;;;;;;;;;12.62;100.00;99690.34;6187510;23;20323;-85
2022/08/02 13:30:23;;;;;;;;;;;;;;;12.68;100.00;99687.34;6212199;23;19916;-83
2022/08/02 13:32:48;;;;;;;;;;;;;;;12.64;100.00;99686.66;6188031;23;19991;-84
2022/08/02 13:35:14;;;;;;;;;;;;;;;12.50;100.00;99687.38;6212736;23;20330;-85
2022/08/02 13:37:40;;;;;;;;;;;;;;;12.59;100.00;99679.88;6212165;23;19919;-86
2022/08/02 13:40:06;;;;;;;;;;;;;;;12.59;100.00;99682.53;6187760;23;19947;-84
2022/08/02 13:42:32;;;;;;;;;;;;;;;12.51;100.00;99685.63;6187871;23;19923;-83
2022/08/02 13:44:57;;;;;;;;;;;;;;;12.59;100.00;99671.91;6187150;23;19916;-84
2022/08/02 13:47:22;;;;;;;;;;;;;;;12.75;100.00;99670.16;6187649;23;20339;-84
2022/08/02 13:49:49;;;;;;;;;;;;;;;12.57;100.00;99665.81;6187493;23;19926;-83
2022/08/02 13:52:14;;;;;;;;;;;;;;;12.63;100.00;99660.16;6184801;23;19922;-83
2022/08/02 13:54:40;;;;;;;;;;;;;;;12.75;100.00;99656.88;6213967;23;19916;-83
2022/08/02 13:57:05;;;;;;;;;;;;;;;12.55;100.00;99657.91;6212515;23;19912;-83
2022/08/02 13:59:31;;;;;;;;;;;;;;;12.45;100.00;99660.19;6183514;23;19912;-84
2022/08/02 14:01:57;;;;;;;;;;;;;;;12.71;100.00;99656.16;6211704;23;19958;-83
2022/08/02 14:04:23;;;;;;;;;;;;;;;12.61;100.00;99656.75;6186916;23;19908;-84
2022/08/02 14:06:48;;;;;;;;;;;;;;;12.47;100.00;99658.31;6212443;23;19999;-84
2022/08/02 14:09:13;;;;;;;;;;;;;;;12.55;100.00;99652.59;6187712;23;19919;-84
2022/08/02 14:11:39;;;;;;;;;;;;;;;12.61;100.00;99648.78;6186389;23;20613;-84
2022/08/02 14:14:04;;;;;;;;;;;;;;;12.48;100.00;99649.41;6214760;23;19990;-84
2022/08/02 14:16:29;;;;;;;;;;;;;;;12.41;100.00;99648.00;6188411;23;20334;-83
2022/08/02 14:18:56;;;;;;;;;;;;;;;12.64;100.00;99644.13;6189716;23;19919;-83
2022/08/02 14:21:21;;;;;;;;;;;;;;;12.60;100.00;99644.38;6213002;23;19916;-83
2022/08/02 14:23:46;;;;;;;;;;;;;;;12.40;100.00;99646.31;6215138;23;19935;-84
2022/08/02 14:26:11;;;;;;;;;;;;;;;12.74;100.00;99641.84;6188117;23;20339;-83
2022/08/02 14:28:37;;;;;;;;;;;;;;;12.67;100.00;99640.47;6211608;23;19915;-82
2022/08/02 14:31:02;;;;;;;;;;;;;;;12.58;100.00;99639.16;6188760;23;19923;-84
2022/08/02 14:33:28;;;;;;;;;;;;;;;12.51;100.00;99643.94;6214198;23;19970;-84
2022/08/02 14:35:53;;;;;;;;;;;;;;;12.65;100.00;99642.34;6187726;23;19912;-83
2022/08/02 14:38:18;;;;;;;;;;;;;;;12.60;100.00;99639.06;6213910;23;20222;-83
2022/08/02 14:40:44;;;;;;;;;;;;;;;12.47;100.00;99641.53;6208756;23;19944;-84
2022/08/02 14:43:09;;;;;;;;;;;;;;;12.65;100.00;99642.34;6215833;23;19912;-84
2022/08/02 14:45:35;;;;;;;;;;;;;;;12.61;100.00;99638.16;6189130;23;19986;-84
2022/08/02 14:48:00;;;;;;;;;;;;;;;12.52;100.00;99637.69;6188286;23;19991;-84
2022/08/02 14:50:25;;;;;;;;;;;;;;;12.49;100.00;99637.84;6215898;23;19916;-84
2022/08/02 14:52:50;;;;;;;;;;;;;;;12.66;100.00;99634.28;6227590;23;19962;-84
2022/08/02 14:55:16;;;;;;;;;;;;;;;12.54;100.00;99627.00;6212476;23;19916;-83
2022/08/02 14:57:41;;;;;;;;;;;;;;;12.36;100.00;99628.78;6245715;23;19912;-83
2022/08/02 15:00:07;;;;;;;;;;;;;;;12.61;100.00;99630.16;6245656;23;20247;-83
2022/08/02 15:02:32;;;;;;;;;;;;;;;12.57;100.00;99629.44;6246478;23;20050;-84
2022/08/02 15:04:58;;;;;;;;;;;;;;;12.43;100.00;99624.91;6245365;23;20271;-84
2022/08/02 15:07:23;;;;;;;;;;;;;;;12.46;100.00;99631.81;6217816;23;19920;-84
2022/08/02 15:09:49;;;;;;;;;;;;;;;13.43;100.00;99623.88;6245704;23;20316;-87
2022/08/02 15:12:14;;;;;;;;;;;;;;;14.09;100.00;99621.84;6244747;23;20336;-83
2022/08/02 15:14:40;;;;;;;;;;;;;;;12.53;100.00;99619.94;6219230;23;19908;-84
2022/08/02 15:17:05;;;;;;;;;;;;;;;12.16;100.00;99617.44;6218875;23;19912;-84
2022/08/02 15:19:31;;;;;;;;;;;;;;;11.86;100.00;99622.50;6193660;23;19908;-85
2022/08/02 15:21:56;;;;;;;;;;;;;;;11.56;100.00;99615.13;6244142;23;19923;-84
2022/08/02 15:24:21;;;;;;;;;;;;;;;11.61;100.00;99617.53;6245605;23;19915;-84
2022/08/02 15:26:49;;;;;;;;;;;;;;;11.47;100.00;99615.56;6246522;23;20328;-85
2022/08/02 15:29:20;;;;;;;;;;;;;;;11.34;100.00;99617.97;6218938;23;19962;-85
2022/08/02 15:31:46;;;;;;;;;;;;;;;11.38;100.00;99621.34;6246077;23;19957;-86
2022/08/02 15:34:11;;;;;;;;;;;;;;;11.36;100.00;99613.47;6219768;23;19966;-85
2022/08/02 15:36:36;;;;;;;;;;;;;;;11.24;100.00;99620.22;6244594;23;19912;-85
2022/08/02 15:39:02;;;;;;;;;;;;;;;11.24;100.00;99614.91;6245446;23;19908;-85
2022/08/02 15:41:27;;;;;;;;;;;;;;;11.30;100.00;99624.38;6219362;23;19922;-85
2022/08/02 15:43:54;;;;;;;;;;;;;;;11.12;100.00;99620.81;6219550;23;19911;-92
2022/08/02 15:46:19;;;;;;;;;;;;;;;11.08;100.00;99611.28;6219183;23;19908;-85
2022/08/02 15:48:44;;;;;;;;;;;;;;;11.23;100.00;99614.97;6245815;23;19912;-85
2022/08/02 15:51:10;;;;;;;;;;;;;;;11.09;100.00;99615.66;6244020;23;20221;-85
2022/08/02 15:53:35;;;;;;;;;;;;;;;11.12;100.00;99609.31;6195037;23;19916;-84
2022/08/02 15:56:00;;;;;;;;;;;;;;;11.22;100.00;99610.63;6215397;23;20286;-85
2022/08/02 15:58:25;;;;;;;;;;;;;;;11.02;100.00;99611.56;6215852;23;20205;-88
2022/08/02 16:00:51;;;;;;;;;;;;;;;11.01;100.00;99607.19;6211622;23;19916;-85
2022/08/02 16:03:16;;;;;;;;;;;;;;;11.07;100.00;99612.19;6214626;23;19911;-84
2022/08/02 16:05:44;;;;;;;;;;;;;;;11.03;100.00;99608.00;6214185;23;19911;-83
2022/08/02 16:08:09;;;;;;;;;;;;;;;11.01;100.00;99616.03;6214418;23;19920;-84
2022/08/02 16:10:35;;;;;;;;;;;;;;;11.10;100.00;99609.41;6212542;23;19916;-84
2022/08/02 16:15:46;;;;;;;;;;;;;;;10.89;100.00;99606.84;6215158;23;20339;-85
2022/08/02 16:18:11;;;;;;;;;;;;;;;11.15;100.00;99611.84;6214664;23;19912;-83
2022/08/02 16:20:37;;;;;;;;;;;;;;;11.07;100.00;99610.44;6212542;23;19922;-83
2022/08/02 16:23:02;;;;;;;;;;;;;;;10.96;100.00;99604.78;6213154;23;20225;-83
2022/08/02 16:25:27;;;;;;;;;;;;;;;11.09;100.00;99603.25;6214431;23;19970;-83
2022/08/02 16:27:53;;;;;;;;;;;;;;;11.14;100.00;99607.50;6187504;23;19916;-83
2022/08/02 16:30:18;;;;;;;;;;;;;;;11.02;100.00;99604.47;6212697;23;20006;-85
2022/08/02 16:32:43;;;;;;;;;;;;;;;11.27;100.00;99592.69;6213834;23;20252;-84
2022/08/02 16:35:08;;;;;;;;;;;;;;;11.26;100.00;99594.50;6185467;23;19916;-84
2022/08/02 16:37:34;;;;;;;;;;;;;;;11.18;100.00;99596.63;6210367;23;20217;-85
2022/08/02 16:39:59;;;;;;;;;;;;;;;11.13;100.00;99592.50;6186880;23;19908;-84
2022/08/02 16:42:24;;;;;;;;;;;;;;;11.45;100.00;99589.16;6187389;23;19916;-85
2022/08/02 16:44:50;;;;;;;;;;;;;;;11.22;100.00;99589.41;6186460;23;19995;-85
2022/08/02 16:47:15;;;;;;;;;;;;;;;11.17;100.00;99588.75;6186988;23;19958;-84
2022/08/02 16:49:40;;;;;;;;;;;;;;;11.38;100.00;99592.16;6186209;23;20331;-84
2022/08/02 16:52:05;;;;;;;;;;;;;;;11.32;100.00;99593.31;6189922;23;19923;-84
2022/08/02 16:54:33;;;;;;;;;;;;;;;11.22;100.00;99586.75;6216979;23;20034;-85
2022/08/02 16:56:58;;;;;;;;;;;;;;;11.55;100.00;99583.34;6217249;23;19916;-84
2022/08/02 16:59:24;;;;;;;;;;;;;;;11.41;100.00;99586.72;6217640;23;19966;-84
2022/08/02 17:01:49;;;;;;;;;;;;;;;11.31;100.00;99578.31;6242505;23;19911;-85
2022/08/02 17:04:14;;;;;;;;;;;;;;;11.49;100.00;99575.69;6244213;23;19957;-85
2022/08/02 17:06:40;;;;;;;;;;;;;;;11.47;100.00;99581.06;6242223;23;19912;-84
2022/08/02 17:09:05;;;;;;;;;;;;;;;11.31;100.00;99583.63;6217178;23;19915;-84
2022/08/02 17:11:33;;;;;;;;;;;;;;;11.36;100.00;99576.31;6217840;23;19918;-85
2022/08/02 17:13:58;;;;;;;;;;;;;;;11.59;100.00;99577.81;6244445;23;19946;-85
2022/08/02 17:16:23;;;;;;;;;;;;;;;11.42;100.00;99576.03;6216945;23;19916;-85
2022/08/02 17:18:51;;;;;;;;;;;;;;;11.42;100.00;99578.69;6216059;23;19974;-85
2022/08/02 17:21:16;;;;;;;;;;;;;;;11.73;100.00;99581.59;6241315;23;19998;-84
2022/08/02 17:23:42;;;;;;;;;;;;;;;11.53;100.00;99585.22;6217075;23;20290;-84
2022/08/02 17:26:07;;;;;;;;;;;;;;;11.40;100.00;99577.88;6244188;23;20254;-84
2022/08/02 17:28:32;;;;;;;;;;;;;;;11.54;100.00;99581.66;6242373;23;19946;-85
2022/08/02 17:30:57;;;;;;;;;;;;;;;11.59;100.00;99579.63;6243951;23;19920;-84
2022/08/02 17:33:23;;;;;;;;;;;;;;;11.43;100.00;99579.53;6244034;23;19958;-85
2022/08/02 17:35:48;;;;;;;;;;;;;;;11.44;100.00;99581.25;6241204;23;19916;-85
2022/08/02 17:38:14;;;;;;;;;;;;;;;11.63;100.00;99584.69;6241490;23;19954;-84
2022/08/02 17:40:40;;;;;;;;;;;;;;;14.42;100.00;99570.06;6217079;23;19954;-86
2022/08/02 17:43:05;;;;;;;;;;;;;;;12.31;100.00;99578.56;6243318;23;19916;-86
2022/08/02 17:45:30;;;;;;;;;;;;;;;12.07;100.00;99583.38;6216763;23;19912;-86
2022/08/02 17:47:58;;;;;;;;;;;;;;;11.71;100.00;99575.47;6217154;23;20275;-88
2022/08/02 17:50:24;;;;;;;;;;;;;;;11.53;100.00;99577.28;6216846;23;20324;-87
2022/08/02 17:52:49;;;;;;;;;;;;;;;11.68;100.00;99571.19;6240907;23;19919;-86
2022/08/02 17:55:14;;;;;;;;;;;;;;;11.73;100.00;99579.78;6216507;23;19954;-86
2022/08/02 17:57:40;;;;;;;;;;;;;;;11.60;100.00;99576.03;6217176;23;19921;-85
2022/08/02 18:00:08;;;;;;;;;;;;;;;11.55;100.00;99578.94;6242649;23;19986;-86
2022/08/02 18:02:36;;;;;;;;;;;;;;;12.75;100.00;99574.44;6244899;23;20232;-88
2022/08/02 18:05:01;;;;;;;;;;;;;;;11.82;100.00;99574.00;6215077;23;20232;-86
2022/08/02 18:07:26;;;;;;;;;;;;;;;11.25;100.00;99573.34;6241025;23;19919;-85
2022/08/02 18:09:52;;;;;;;;;;;;;;;11.76;100.00;99576.97;6215881;23;19916;-88
2022/08/02 18:12:17;;;;;;;;;;;;;;;11.47;100.00;99567.81;6244237;23;20389;-83
2022/08/02 18:14:46;;;;;;;;;;;;;;;11.10;100.00;99572.28;6243379;23;19908;-84
2022/08/02 18:17:12;;;;;;;;;;;;;;;11.15;100.00;99569.41;6243315;23;20361;-83
2022/08/02 18:19:37;;;;;;;;;;;;;;;11.16;100.00;99566.69;6244065;23;19918;-84
2022/08/02 18:22:03;;;;;;;;;;;;;;;10.99;100.00;99567.53;6242843;23;19912;-84
2022/08/02 18:24:31;;;;;;;;;;;;;;;10.98;100.00;99563.13;6244727;23;20381;-83
2022/08/02 18:26:56;;;;;;;;;;;;;;;11.08;100.00;99567.06;6243695;23;19935;-85
2022/08/02 18:29:22;;;;;;;;;;;;;;;10.95;100.00;99563.28;6243638;23;19919;-84
2022/08/02 18:31:47;;;;;;;;;;;;;;;10.81;100.00;99560.44;6244315;23;20316;-84
2022/08/02 18:34:12;;;;;;;;;;;;;;;10.95;100.00;99567.75;6244089;23;20375;-84
2022/08/02 18:36:38;;;;;;;;;;;;;;;10.84;100.00;99566.44;6241637;23;19995;-84
2022/08/02 18:39:03;;;;;;;;;;;;;;;10.87;100.00;99568.09;6217106;23;19908;-83
2022/08/02 18:41:29;;;;;;;;;;;;;;;10.94;100.00;99564.22;6216579;23;20332;-86
2022/08/02 18:43:55;;;;;;;;;;;;;;;10.92;100.00;99566.09;6244435;23;19930;-83
2022/08/02 18:46:20;;;;;;;;;;;;;;;10.85;100.00;99565.53;6243617;23;19912;-84
2022/08/02 18:48:46;;;;;;;;;;;;;;;10.99;100.00;99564.00;6242969;23;20346;-84
2022/08/02 18:51:11;;;;;;;;;;;;;;;10.81;100.00;99568.38;6242556;23;19916;-84
2022/08/02 18:53:37;;;;;;;;;;;;;;;10.77;100.00;99570.31;6244291;23;19954;-84
2022/08/02 18:56:03;;;;;;;;;;;;;;;10.98;100.00;99559.63;6215743;23;19919;-84
2022/08/02 18:58:28;;;;;;;;;;;;;;;10.79;100.00;99565.81;6243632;23;20359;-85
2022/08/02 19:00:53;;;;;;;;;;;;;;;10.79;100.00;99568.47;6218030;23;19915;-85
2022/08/02 19:03:19;;;;;;;;;;;;;;;10.97;100.00;99574.66;6243524;23;20323;-84
2022/08/02 19:05:46;;;;;;;;;;;;;;;10.89;100.00;99566.22;6218272;23;19990;-87
2022/08/02 19:08:11;;;;;;;;;;;;;;;10.82;100.00;99564.81;6246429;23;19991;-84
2022/08/02 19:10:38;;;;;;;;;;;;;;;11.08;100.00;99558.25;6246236;23;19939;-84
2022/08/02 19:13:04;;;;;;;;;;;;;;;10.93;100.00;99566.94;6246271;23;19990;-85
2022/08/02 19:15:29;;;;;;;;;;;;;;;10.88;100.00;99569.78;6244808;23;20354;-85
2022/08/02 19:17:56;;;;;;;;;;;;;;;11.21;100.00;99566.47;6246216;23;19981;-84
2022/08/02 19:20:22;;;;;;;;;;;;;;;11.04;100.00;99557.53;6219510;23;19912;-84
2022/08/02 19:22:48;;;;;;;;;;;;;;;10.96;100.00;99564.13;6238567;23;19938;-85
2022/08/02 19:25:14;;;;;;;;;;;;;;;11.25;100.00;99565.41;6245973;23;19990;-86
2022/08/02 19:27:40;;;;;;;;;;;;;;;11.23;100.00;99570.78;6244242;23;19968;-84
2022/08/02 19:30:05;;;;;;;;;;;;;;;11.12;100.00;99574.84;6219133;23;20216;-86
2022/08/02 19:32:31;;;;;;;;;;;;;;;11.37;100.00;99572.72;6245627;23;19911;-83
2022/08/02 19:34:59;;;;;;;;;;;;;;;11.33;100.00;99572.94;6218483;23;20006;-85
2022/08/02 19:37:25;;;;;;;;;;;;;;;11.19;100.00;99571.84;6217709;23;19915;-84
2022/08/02 19:39:51;;;;;;;;;;;;;;;11.42;100.00;99570.72;6244757;23;19919;-84
2022/08/02 19:42:16;;;;;;;;;;;;;;;11.42;100.00;99577.81;6245850;23;20005;-86
2022/08/02 19:44:42;;;;;;;;;;;;;;;11.26;100.00;99580.34;6219450;23;19912;-85
2022/08/02 19:47:08;;;;;;;;;;;;;;;11.45;100.00;99581.19;6245869;23;19915;-85
2022/08/02 19:49:33;;;;;;;;;;;;;;;11.45;100.00;99585.59;6219002;23;20362;-85
2022/08/02 19:51:58;;;;;;;;;;;;;;;11.38;100.00;99579.75;6244711;23;19920;-85
2022/08/02 19:54:23;;;;;;;;;;;;;;;11.45;100.00;99589.16;6245942;23;19911;-84
2022/08/02 19:56:49;;;;;;;;;;;;;;;11.56;100.00;99587.72;6244340;23;19919;-84